Aérodrome :
LOGIN :

S'inscrire | Disclaimer

   EN    FR    IT 

 










Légende :    VFR   VFR Marginal   IFR   IFR Intensif   IFR Très Intensif
Visi : 
Plafond : 
>= 8 km
>= 3000ft
5 à 8 km
1000 à 3000 ft
1500m à 5 km
500 à 1000 ft
800 à 1500m
200 à 500 ft
< 800m
< 200 ft
Symboles :   Orages  Brouillard  Fortes neiges  Fortes précipitations  Vent > 20 kt
SIGMETs :   Divers  Orages  Givrage  Turbulence  Onde Orograph.  Cendres Volcan.







- Altitude de l'aérodrome : 242 ft
- Code IATA : DUB


EIDW - Dublin

DERNIER METAR :
  • 251000Z 25019KT 9999 FEW014 SCT022 BKN250 11/06 Q1008 NOSIG

METARs EXPIRÉS :
  • 250930Z 25018KT 9999 FEW012 SCT022 BKN250 09/05 Q1008 NOSIG
  • 250900Z 24019KT 9999 FEW012 SCT020 BKN250 09/05 Q1008 NOSIG
  • 250830Z 24015KT 9999 FEW012 SCT020 BKN250 08/05 Q1008 NOSIG
  • 250800Z 23016KT 9999 FEW012 SCT020 BKN250 08/05 Q1008 NOSIG
  • 250730Z 23016KT 9999 FEW014 SCT130 BKN250 07/05 Q1008 NOSIG

TAF TAF EIDW
Valide du 25 à 06h jusqu'au 26 à 06h UTC


250500Z 2506/2606 24012KT 9999 FEW018 SCT030
BECMG 2508/2510 25017KT
TEMPO 2510/2520 26022G32KT -SHRA SCT018CB
PROB40
TEMPO 2513/2519 SHRA
Pas de NOTAMs connus pour ce terrain.



MET'MAP, la Météo Aéronautique d'un coup d'oeil ! - Copyright ORBIFLY Décembre 2007 - Disclaimer

ORBIFLY MET'MAP TEAM :

Programmation & Développement : Alexandra Zaïnal
Conception & Développement : Baudouin d'Aumeries
Co-Programmation & Développement : Marc-Olivier Méhu
Soutien technique & logistique : Manuel Goepfert

Contact : metmap@orbifly.com




SOURCES & CREDITS :

   NOAA